Time;durP1;ratioP1;P1;durP2;ratioP2;P2;SDS_P1;SDS_P2;PMS_P1;PMS_P2;Temp;Humidity;BMP_temperature;BMP_pressure;BME280_temperature;BME280_humidity;BME280_pressure;Samples;Min_cycle;Max_cycle;Signal;HPM_P1;HPM_P2
2022/01/01 00:01:27;;;;;;;11.23;7.63;;;;;;;12.10;100.00;99926.00;5014958;28;20186;-81
2022/01/01 00:03:56;;;;;;;9.93;7.40;;;;;;;12.04;100.00;99925.38;5015063;28;20294;-81
2022/01/01 00:06:24;;;;;;;10.33;7.77;;;;;;;12.03;100.00;99925.47;5010799;28;20195;-81
2022/01/01 00:08:52;;;;;;;9.33;6.93;;;;;;;12.11;100.00;99925.03;5007897;28;20220;-81
2022/01/01 00:11:21;;;;;;;11.57;8.07;;;;;;;12.02;100.00;99931.72;5009683;28;20661;-81
2022/01/01 00:13:52;;;;;;;10.00;7.50;;;;;;;12.02;100.00;99931.72;5007062;28;20225;-81
2022/01/01 00:16:21;;;;;;;14.40;9.33;;;;;;;12.03;100.00;99922.81;5014651;28;20222;-81
2022/01/01 00:18:50;;;;;;;13.90;8.70;;;;;;;12.07;100.00;99919.06;4929289;29;20205;-81
2022/01/01 00:21:18;;;;;;;12.87;8.80;;;;;;;12.06;100.00;99922.63;4928859;29;20232;-80
2022/01/01 00:23:47;;;;;;;13.97;9.27;;;;;;;12.01;100.00;99928.22;4926002;29;20201;-81
2022/01/01 00:26:15;;;;;;;14.30;9.67;;;;;;;12.03;100.00;99941.41;4931431;29;20189;-81
2022/01/01 00:28:45;;;;;;;13.97;9.47;;;;;;;12.11;100.00;99933.00;4930638;29;20205;-81
2022/01/01 00:31:14;;;;;;;10.90;7.97;;;;;;;12.08;100.00;99935.84;4932437;29;20204;-81
2022/01/01 00:33:43;;;;;;;11.53;7.57;;;;;;;12.08;100.00;99928.75;4938483;29;20287;-81
2022/01/01 00:36:12;;;;;;;13.17;7.43;;;;;;;12.10;100.00;99933.94;4875460;29;20198;-81
2022/01/01 00:38:40;;;;;;;13.50;7.93;;;;;;;12.07;100.00;99923.53;4937463;29;20203;-82
2022/01/01 00:41:09;;;;;;;11.03;7.70;;;;;;;12.04;100.00;99924.53;4933325;29;20197;-81
2022/01/01 00:43:37;;;;;;;13.10;7.37;;;;;;;-144.59;100.00;99924.53;4937301;29;20197;-81
2022/01/01 00:46:05;;;;;;;9.47;6.93;;;;;;;12.14;100.00;99924.84;4939655;29;20197;-81
2022/01/01 00:48:33;;;;;;;10.27;6.60;;;;;;;12.21;100.00;99935.03;4895832;29;20198;-81
2022/01/01 00:51:24;;;;;;;10.20;6.33;;;;;;;12.12;100.00;99924.94;4900693;29;20211;-81
2022/01/01 00:53:55;;;;;;;6.63;5.27;;;;;;;12.21;100.00;99918.25;4923098;28;20239;-81
2022/01/01 00:56:23;;;;;;;9.63;5.60;;;;;;;12.23;100.00;99930.47;4977843;28;20199;-81
2022/01/01 00:58:52;;;;;;;9.67;5.50;;;;;;;12.21;100.00;99927.06;4974708;28;20204;-81
2022/01/01 01:01:20;;;;;;;7.67;5.37;;;;;;;12.21;100.00;99931.53;4974147;28;20211;-81
2022/01/01 01:03:49;;;;;;;8.37;5.37;;;;;;;12.26;100.00;99925.00;4971698;28;20200;-81
2022/01/01 01:06:17;;;;;;;8.87;5.43;;;;;;;12.21;100.00;99920.91;4976679;28;20212;-81
2022/01/01 01:08:47;;;;;;;9.23;4.67;;;;;;;12.21;100.00;99920.91;4965302;28;20211;-81
2022/01/01 01:11:17;;;;;;;9.23;5.03;;;;;;;12.29;100.00;99929.28;4976219;28;20199;-81
2022/01/01 01:13:55;;;;;;;6.90;4.93;;;;;;;12.20;100.00;99929.81;5001213;28;20198;-81
2022/01/01 01:16:23;;;;;;;9.23;4.73;;;;;;;12.20;100.00;99929.81;5011862;28;20271;-81
2022/01/01 01:18:53;;;;;;;7.70;5.23;;;;;;;12.14;100.00;99927.50;5012427;28;20221;-81
2022/01/01 01:21:23;;;;;;;7.73;4.67;;;;;;;-144.59;100.00;55160.66;5007066;28;20194;-82
2022/01/01 01:23:54;;;;;;;10.97;5.30;;;;;;;12.15;100.00;76016.25;5008131;28;20221;-81
2022/01/01 01:26:23;;;;;;;9.97;5.10;;;;;;;12.29;100.00;99931.94;5005226;28;20222;-81
2022/01/01 01:28:53;;;;;;;7.20;4.57;;;;;;;12.27;100.00;99942.66;5010861;28;20206;-81
2022/01/01 01:31:23;;;;;;;7.27;4.77;;;;;;;12.20;100.00;99937.78;5013560;28;20190;-82
2022/01/01 01:33:52;;;;;;;8.53;4.90;;;;;;;12.16;100.00;99946.84;5010185;28;20194;-81
2022/01/01 01:36:20;;;;;;;9.50;5.40;;;;;;;12.16;100.00;99945.09;5009492;28;20209;-81
2022/01/01 01:38:48;;;;;;;11.00;5.83;;;;;;;12.13;100.00;99944.38;5009816;28;20218;-81
2022/01/01 01:41:18;;;;;;;10.20;6.17;;;;;;;12.10;100.00;99944.56;5017741;28;20194;-81
2022/01/01 01:43:51;;;;;;;9.07;5.93;;;;;;;12.06;100.00;99954.50;5012531;28;20210;-81
2022/01/01 01:46:19;;;;;;;11.17;5.73;;;;;;;-144.59;100.00;117073.97;5015842;28;20253;-82
2022/01/01 01:48:47;;;;;;;10.20;5.83;;;;;;;12.07;100.00;99961.56;5014560;28;20194;-81
2022/01/01 01:51:16;;;;;;;7.13;5.50;;;;;;;12.12;100.00;99969.25;5017440;28;20197;-81
2022/01/01 01:53:45;;;;;;;10.53;5.93;;;;;;;12.12;100.00;99969.25;5008698;28;20190;-81
2022/01/01 01:56:13;;;;;;;8.60;5.80;;;;;;;12.14;100.00;99970.00;5012927;28;20198;-81
2022/01/01 01:58:43;;;;;;;10.17;5.83;;;;;;;12.09;100.00;99975.59;5009896;28;20214;-81
2022/01/01 02:01:23;;;;;;;10.90;5.53;;;;;;;12.09;100.00;99975.59;5017431;28;20199;-81
2022/01/01 02:03:56;;;;;;;10.63;5.63;;;;;;;12.11;100.00;99972.84;5015642;28;20232;-81
2022/01/01 02:06:25;;;;;;;7.23;5.37;;;;;;;12.14;100.00;99980.63;5017350;28;20190;-81
2022/01/01 02:08:55;;;;;;;9.70;5.03;;;;;;;12.16;100.00;99970.75;5013166;28;20202;-81
2022/01/01 02:11:24;;;;;;;9.67;5.47;;;;;;;12.12;100.00;99974.56;5017142;28;20206;-81
2022/01/01 02:14:17;;;;;;;6.80;5.07;;;;;;;-144.59;100.00;83023.59;5012153;28;20190;-81
2022/01/01 02:19:44;;;;;;;8.30;5.37;;;;;;;12.12;100.00;99975.41;5011238;28;20230;-81
2022/01/01 02:22:14;;;;;;;6.87;4.67;;;;;;;12.14;100.00;99968.19;5006335;28;20198;-81
2022/01/01 02:24:43;;;;;;;10.03;5.20;;;;;;;12.27;100.00;99957.75;5014866;28;20198;-81
2022/01/01 02:27:11;;;;;;;11.07;5.10;;;;;;;12.10;100.00;99961.38;5010754;28;20203;-81
2022/01/01 02:29:39;;;;;;;7.13;5.37;;;;;;;12.12;100.00;99962.13;5008553;28;20212;-81
2022/01/01 02:32:13;;;;;;;10.50;5.80;;;;;;;12.16;100.00;99963.69;5014013;28;20198;-81
2022/01/01 02:34:42;;;;;;;10.90;5.73;;;;;;;12.14;100.00;99962.03;5012930;28;20221;-81
2022/01/01 02:37:10;;;;;;;6.77;5.20;;;;;;;12.08;100.00;99973.88;5030548;28;20189;-81
2022/01/01 02:39:40;;;;;;;10.93;5.60;;;;;;;12.12;100.00;99964.78;5029799;28;20214;-81
2022/01/01 02:42:10;;;;;;;9.37;5.70;;;;;;;12.08;100.00;99968.56;5015748;28;20649;-81
2022/01/01 02:44:39;;;;;;;10.47;5.30;;;;;;;12.09;100.00;99970.28;5009437;28;20194;-81
2022/01/01 02:47:08;;;;;;;7.10;4.90;;;;;;;12.12;100.00;99970.09;5013634;28;20218;-81
2022/01/01 02:49:36;;;;;;;7.80;5.10;;;;;;;12.13;100.00;99961.19;5013297;28;20195;-81
2022/01/01 02:52:05;;;;;;;9.47;5.73;;;;;;;12.13;100.00;99970.94;5011041;28;20195;-81
2022/01/01 02:54:33;;;;;;;9.43;5.20;;;;;;;12.24;100.00;99968.53;4988391;28;20211;-81
2022/01/01 02:57:03;;;;;;;9.20;5.20;;;;;;;12.15;100.00;99961.09;5012315;28;20198;-81
2022/01/01 02:59:32;;;;;;;7.83;5.33;;;;;;;12.13;100.00;99958.53;5007916;28;20218;-81
2022/01/01 03:02:00;;;;;;;8.87;5.00;;;;;;;12.11;100.00;99962.22;5013405;28;20186;-81
2022/01/01 03:04:28;;;;;;;8.93;4.87;;;;;;;12.14;100.00;99952.25;5006716;28;20226;-81
2022/01/01 03:06:58;;;;;;;10.50;5.23;;;;;;;12.14;100.00;99952.25;5012526;28;20201;-81
2022/01/01 03:09:34;;;;;;;7.97;4.60;;;;;;;12.24;100.00;99953.44;5013526;28;20206;-81
2022/01/01 03:12:06;;;;;;;8.57;5.23;;;;;;;12.21;100.00;99955.44;5013805;28;20212;-81
2022/01/01 03:14:35;;;;;;;7.10;4.67;;;;;;;12.20;100.00;99951.91;5015211;28;20206;-81
2022/01/01 03:17:04;;;;;;;6.97;4.73;;;;;;;12.08;100.00;99965.91;5011923;28;20194;-81
2022/01/01 03:19:32;;;;;;;10.13;5.00;;;;;;;12.02;100.00;99963.59;5005370;28;20242;-81
2022/01/01 03:22:01;;;;;;;7.27;4.23;;;;;;;12.07;100.00;99966.88;5012774;28;20214;-81
2022/01/01 03:24:29;;;;;;;7.17;4.43;;;;;;;12.13;100.00;99953.22;5012740;28;20206;-81
2022/01/01 03:26:59;;;;;;;8.60;5.50;;;;;;;12.13;100.00;99953.22;5013646;28;20195;-81
2022/01/01 03:29:31;;;;;;;7.73;4.93;;;;;;;12.27;100.00;99952.44;5011404;28;20206;-81
2022/01/01 03:32:00;;;;;;;8.50;5.40;;;;;;;12.34;100.00;99956.41;5013918;28;20206;-82
2022/01/01 03:34:28;;;;;;;8.73;4.70;;;;;;;12.26;100.00;99958.69;5011406;28;20253;-81
2022/01/01 03:36:57;;;;;;;7.40;4.70;;;;;;;12.28;100.00;99959.44;5008963;28;20214;-82
2022/01/01 03:39:27;;;;;;;8.20;4.27;;;;;;;12.30;100.00;99960.22;5011696;28;20226;-81
2022/01/01 03:41:55;;;;;;;6.13;3.93;;;;;;;12.25;100.00;99962.25;5012636;28;20286;-81
2022/01/01 03:44:24;;;;;;;8.27;4.70;;;;;;;12.16;100.00;99966.34;5010795;28;20241;-81
2022/01/01 03:47:03;;;;;;;8.10;4.80;;;;;;;12.16;100.00;76044.53;5013614;28;20206;-81
2022/01/01 03:49:31;;;;;;;7.77;4.43;;;;;;;12.18;100.00;99964.44;5012319;28;20330;-81
2022/01/01 03:51:59;;;;;;;8.00;4.43;;;;;;;12.10;100.00;99972.00;4991106;28;20209;-81
2022/01/01 03:54:27;;;;;;;9.10;4.97;;;;;;;12.06;100.00;99980.19;5009689;28;20198;-81
2022/01/01 03:56:57;;;;;;;7.57;4.80;;;;;;;12.08;100.00;99979.19;5015128;28;20210;-81
2022/01/01 03:59:25;;;;;;;9.63;4.43;;;;;;;12.10;100.00;99987.91;5013917;28;20689;-81
2022/01/01 04:01:55;;;;;;;6.63;4.23;;;;;;;12.21;100.00;99988.16;5010301;28;20190;-81
2022/01/01 04:04:25;;;;;;;6.60;4.43;;;;;;;157.65;100.00;117597.06;5015115;28;20233;-81
2022/01/01 04:06:55;;;;;;;8.33;4.40;;;;;;;12.44;100.00;99981.50;5009480;28;20198;-81
2022/01/01 04:09:23;;;;;;;14.77;9.80;;;;;;;12.33;100.00;99981.28;5011878;28;20209;-81
2022/01/01 04:11:52;;;;;;;19.77;13.87;;;;;;;12.30;100.00;99978.81;5012235;28;20281;-81
2022/01/01 04:14:20;;;;;;;20.87;15.30;;;;;;;12.30;100.00;99978.81;5009184;28;20202;-81
2022/01/01 04:16:52;;;;;;;24.07;15.30;;;;;;;11.89;100.00;99983.84;5010437;28;20311;-81
2022/01/01 04:19:26;;;;;;;24.23;17.33;;;;;;;11.97;100.00;99977.16;5012479;28;20230;-81
2022/01/01 04:21:55;;;;;;;21.67;16.17;;;;;;;11.83;100.00;99981.50;5012779;28;20205;-81
2022/01/01 04:24:23;;;;;;;23.13;16.40;;;;;;;11.70;100.00;99991.94;5009313;28;20202;-81
2022/01/01 04:26:51;;;;;;;27.30;16.90;;;;;;;11.55;100.00;99990.09;5014682;28;20202;-81
2022/01/01 04:29:20;;;;;;;27.53;17.83;;;;;;;11.63;100.00;99994.06;5003535;28;20249;-81
2022/01/01 04:31:48;;;;;;;23.47;16.13;;;;;;;-144.59;100.00;99994.06;5011721;28;20249;-81
2022/01/01 04:34:16;;;;;;;26.03;16.93;;;;;;;11.45;100.00;99995.06;5014401;28;20198;-81
2022/01/01 04:36:50;;;;;;;28.50;17.37;;;;;;;11.60;100.00;99996.03;5011862;28;20209;-81
2022/01/01 04:39:20;;;;;;;27.40;17.70;;;;;;;11.64;100.00;100000.22;5008178;28;20226;-81
2022/01/01 04:41:48;;;;;;;22.63;14.47;;;;;;;11.64;100.00;100002.88;5011338;28;20662;-81
2022/01/01 04:44:16;;;;;;;19.23;13.70;;;;;;;11.59;100.00;100002.28;5011377;28;20194;-81
2022/01/01 04:46:46;;;;;;;15.63;8.03;;;;;;;-97.76;100.00;100002.28;5009667;28;20260;-81
2022/01/01 04:49:18;;;;;;;10.20;6.10;;;;;;;11.60;100.00;99996.88;5009494;28;20198;-81
2022/01/01 04:51:48;;;;;;;11.47;6.13;;;;;;;11.60;100.00;99990.72;5007976;28;20191;-81
2022/01/01 04:54:17;;;;;;;7.70;5.27;;;;;;;11.68;100.00;99993.81;5010448;28;20194;-81
2022/01/01 04:56:47;;;;;;;11.03;5.43;;;;;;;11.68;100.00;99999.97;5014256;28;20194;-81
2022/01/01 04:59:16;;;;;;;9.90;4.83;;;;;;;11.80;100.00;100005.56;4969210;28;20262;-81
2022/01/01 05:01:45;;;;;;;7.20;4.80;;;;;;;11.90;100.00;99996.16;4962604;28;20203;-81
2022/01/01 05:04:15;;;;;;;9.43;5.83;;;;;;;11.91;100.00;99998.72;4970583;28;20652;-81
2022/01/01 05:06:49;;;;;;;13.63;7.57;;;;;;;11.72;100.00;99998.00;4972923;28;20263;-81
2022/01/01 05:09:19;;;;;;;11.57;6.60;;;;;;;11.72;100.00;130053.34;4967970;28;20351;-81
2022/01/01 05:11:48;;;;;;;10.80;6.83;;;;;;;11.71;100.00;99990.97;4965405;28;20214;-81
2022/01/01 05:14:16;;;;;;;11.03;6.97;;;;;;;11.54;100.00;99997.22;4966883;28;20227;-81
2022/01/01 05:16:46;;;;;;;14.53;7.57;;;;;;;11.55;100.00;99998.91;4981170;28;20225;-82
2022/01/01 05:19:16;;;;;;;10.77;7.17;;;;;;;11.54;100.00;100007.81;5008371;28;20218;-81
2022/01/01 05:21:44;;;;;;;10.10;7.07;;;;;;;11.43;100.00;100005.75;5011485;28;20190;-81
2022/01/01 05:24:18;;;;;;;10.53;6.43;;;;;;;11.54;100.00;100006.97;5004222;28;20285;-81
2022/01/01 05:26:47;;;;;;;10.77;6.83;;;;;;;11.82;100.00;100014.31;5009140;28;20201;-81
2022/01/01 05:29:15;;;;;;;11.00;6.87;;;;;;;11.76;100.00;100013.66;5012571;28;20198;-81
2022/01/01 05:31:44;;;;;;;10.97;7.07;;;;;;;11.73;100.00;100013.84;5006296;28;20206;-81
2022/01/01 05:34:12;;;;;;;11.93;6.97;;;;;;;11.85;100.00;100014.97;5001627;28;20198;-81
2022/01/01 05:36:40;;;;;;;17.90;11.60;;;;;;;11.80;100.00;100005.56;5006236;28;20207;-81
2022/01/01 05:39:09;;;;;;;19.23;12.23;;;;;;;11.85;100.00;100007.00;5012120;28;20206;-81
2022/01/01 05:41:38;;;;;;;18.73;12.20;;;;;;;11.84;100.00;100005.31;5013552;28;20206;-81
2022/01/01 05:44:08;;;;;;;18.90;13.00;;;;;;;11.71;100.00;100007.75;5006620;28;20206;-81
2022/01/01 05:46:36;;;;;;;20.63;13.27;;;;;;;11.54;100.00;99991.91;5013730;28;20194;-81
2022/01/01 05:49:05;;;;;;;20.77;13.10;;;;;;;11.61;100.00;100000.41;5009179;28;20245;-80
2022/01/01 05:51:33;;;;;;;20.80;12.63;;;;;;;11.56;100.00;99997.97;5032401;28;20205;-81
2022/01/01 05:54:02;;;;;;;20.67;13.33;;;;;;;11.64;100.00;100003.72;5013565;28;20248;-81
2022/01/01 05:56:30;;;;;;;20.20;12.50;;;;;;;11.64;100.00;100009.63;5010847;28;20221;-81
2022/01/01 05:58:58;;;;;;;17.50;12.30;;;;;;;11.54;100.00;100009.63;5007038;28;20233;-81
2022/01/01 06:01:30;;;;;;;19.23;12.33;;;;;;;11.50;100.00;100000.13;5008397;28;20222;-81
2022/01/01 06:04:00;;;;;;;19.10;12.10;;;;;;;11.61;100.00;100009.22;5011402;28;20198;-81
2022/01/01 06:06:28;;;;;;;19.27;12.90;;;;;;;11.57;100.00;100002.34;5005020;28;20705;-81
2022/01/01 06:09:01;;;;;;;20.77;12.43;;;;;;;11.57;100.00;100007.63;5011676;28;20207;-81
2022/01/01 06:11:29;;;;;;;17.37;11.37;;;;;;;11.60;100.00;100007.50;5010578;28;20197;-81
2022/01/01 06:14:00;;;;;;;14.23;9.87;;;;;;;11.59;100.00;100008.44;5012423;28;20198;-81
2022/01/01 06:16:30;;;;;;;15.23;10.37;;;;;;;11.62;100.00;100005.59;5010542;28;20206;-82
2022/01/01 06:18:59;;;;;;;17.63;10.10;;;;;;;11.61;100.00;100009.22;5008667;28;20218;-81
2022/01/01 06:21:28;;;;;;;14.33;9.87;;;;;;;11.64;100.00;100001.06;5007473;28;20231;-81
2022/01/01 06:23:56;;;;;;;16.47;9.13;;;;;;;-144.59;100.00;100001.06;5010970;28;20369;-81
2022/01/01 06:26:24;;;;;;;16.30;9.33;;;;;;;11.73;100.00;100005.00;5014049;28;20205;-81
2022/01/01 06:28:52;;;;;;;17.53;9.70;;;;;;;11.64;100.00;100006.38;5013937;28;20217;-81
2022/01/01 06:31:21;;;;;;;14.10;8.93;;;;;;;11.68;100.00;100004.44;5013754;28;20198;-81
2022/01/01 06:33:52;;;;;;;12.10;8.30;;;;;;;11.71;100.00;100006.91;5013088;28;20222;-81
2022/01/01 06:36:22;;;;;;;12.73;8.77;;;;;;;11.66;100.00;100008.94;5011208;28;20697;-81
2022/01/01 06:38:50;;;;;;;16.37;9.40;;;;;;;11.67;100.00;100000.03;5010397;28;20193;-81
2022/01/01 06:41:20;;;;;;;15.90;9.43;;;;;;;11.74;100.00;100007.59;5016376;28;20342;-81
2022/01/01 06:43:49;;;;;;;14.13;9.20;;;;;;;11.81;100.00;100013.44;5012495;28;20198;-81
2022/01/01 06:46:17;;;;;;;16.87;9.70;;;;;;;11.75;100.00;100016.41;5009570;28;20210;-81
2022/01/01 06:48:45;;;;;;;16.13;9.67;;;;;;;11.70;100.00;100019.31;5011944;28;20229;-82
2022/01/01 06:51:15;;;;;;;16.73;10.17;;;;;;;11.87;100.00;100029.06;5016633;28;20204;-81
2022/01/01 06:53:45;;;;;;;14.03;9.73;;;;;;;11.79;100.00;100023.28;5013621;28;20191;-81
2022/01/01 06:56:13;;;;;;;13.67;9.07;;;;;;;11.81;100.00;100031.19;5006827;28;20313;-81
2022/01/01 06:58:44;;;;;;;17.37;9.47;;;;;;;11.74;100.00;100036.78;5012063;28;20195;-81
2022/01/01 07:01:12;;;;;;;15.90;9.63;;;;;;;11.73;100.00;100043.03;5009171;28;20229;-81
2022/01/01 07:03:41;;;;;;;16.80;10.80;;;;;;;11.65;100.00;100053.19;5016183;28;20670;-81
2022/01/01 07:06:09;;;;;;;14.50;10.90;;;;;;;11.70;100.00;100058.28;5004622;28;20198;-81
2022/01/01 07:08:39;;;;;;;17.40;10.50;;;;;;;11.69;100.00;100062.72;5011806;28;20213;-81
2022/01/01 07:11:08;;;;;;;16.87;10.43;;;;;;;11.60;100.00;100070.31;5016035;28;20194;-81
2022/01/01 07:13:37;;;;;;;14.53;10.33;;;;;;;11.65;100.00;100071.78;5011949;28;20241;-81
2022/01/01 07:16:06;;;;;;;14.60;10.10;;;;;;;11.58;100.00;100075.72;5008879;28;20210;-82
2022/01/01 07:18:36;;;;;;;16.10;10.43;;;;;;;11.52;100.00;100077.84;5011920;28;20194;-81
2022/01/01 07:21:04;;;;;;;16.20;10.43;;;;;;;11.67;100.00;100080.50;5011786;28;20291;-81
2022/01/01 07:23:32;;;;;;;14.53;10.30;;;;;;;11.77;100.00;100080.88;5010349;28;20205;-81
2022/01/01 07:26:03;;;;;;;15.67;9.30;;;;;;;11.68;100.00;100076.94;5015708;28;20191;-81
2022/01/01 07:28:32;;;;;;;12.63;9.07;;;;;;;11.70;100.00;100085.66;5008486;28;20209;-81
2022/01/01 07:31:00;;;;;;;14.77;9.40;;;;;;;11.70;100.00;100085.66;5014013;28;20199;-81
2022/01/01 07:33:28;;;;;;;17.57;10.20;;;;;;;11.69;100.00;100097.22;5013652;28;20194;-82
2022/01/01 07:35:56;;;;;;;16.97;10.73;;;;;;;11.78;100.00;100089.72;5008411;28;20280;-81
2022/01/01 07:38:27;;;;;;;15.27;8.80;;;;;;;11.73;100.00;100097.91;5010927;28;20190;-81
2022/01/01 07:40:56;;;;;;;15.47;8.87;;;;;;;11.74;100.00;100103.13;5008818;28;20214;-81
2022/01/01 07:43:29;;;;;;;13.63;8.17;;;;;;;11.70;100.00;100108.69;5007693;28;20190;-81
2022/01/01 07:45:59;;;;;;;15.03;8.10;;;;;;;11.51;100.00;100113.25;5012075;28;20194;-82
2022/01/01 07:48:28;;;;;;;10.53;7.17;;;;;;;11.45;100.00;100107.31;5015812;28;20203;-81
2022/01/01 07:50:56;;;;;;;11.27;7.60;;;;;;;11.59;100.00;100122.53;5011277;28;20198;-81
2022/01/01 07:53:24;;;;;;;12.57;7.83;;;;;;;11.60;100.00;100120.75;5013431;28;20214;-81
2022/01/01 07:55:52;;;;;;;10.60;7.30;;;;;;;11.66;100.00;100128.38;5004046;28;20206;-81
2022/01/01 07:58:21;;;;;;;12.47;7.77;;;;;;;11.77;100.00;100123.34;5014151;28;20256;-81
2022/01/01 08:00:51;;;;;;;17.90;8.10;;;;;;;11.90;100.00;100120.94;5012503;28;20211;-81
2022/01/01 08:03:21;;;;;;;13.00;7.50;;;;;;;11.89;100.00;100116.56;5013368;28;20230;-82
2022/01/01 08:05:50;;;;;;;12.97;8.03;;;;;;;11.85;100.00;100112.34;5012276;28;20194;-81
2022/01/01 08:08:18;;;;;;;14.37;8.73;;;;;;;11.83;100.00;100115.09;4991106;28;20190;-82
2022/01/01 08:10:47;;;;;;;13.93;9.10;;;;;;;11.83;100.00;100112.44;5011091;28;20233;-81
2022/01/01 08:13:22;;;;;;;11.30;8.57;;;;;;;11.70;100.00;100119.31;5010838;28;20341;-81
2022/01/01 08:15:54;;;;;;;14.43;9.17;;;;;;;11.79;100.00;100112.66;5010248;28;20266;-81
2022/01/01 08:18:23;;;;;;;14.10;8.53;;;;;;;11.85;100.00;100107.88;5008548;28;20194;-81
2022/01/01 08:20:51;;;;;;;13.73;8.50;;;;;;;11.85;100.00;100107.88;5008958;28;20238;-81
2022/01/01 08:23:19;;;;;;;16.20;7.70;;;;;;;11.87;100.00;100103.38;5009396;28;20336;-81
2022/01/01 08:25:48;;;;;;;12.20;6.50;;;;;;;11.95;100.00;100102.94;5011850;28;20199;-81
2022/01/01 08:28:17;;;;;;;9.40;6.73;;;;;;;11.86;100.00;100098.97;5010742;28;20187;-81
2022/01/01 08:30:45;;;;;;;8.37;6.97;;;;;;;11.83;100.00;100101.81;5017309;28;20197;-81
2022/01/01 08:33:16;;;;;;;9.57;6.40;;;;;;;11.75;100.00;100096.88;5013277;28;20222;-81
2022/01/01 08:35:45;;;;;;;12.60;8.43;;;;;;;11.82;100.00;100100.09;5005902;28;20209;-81
2022/01/01 08:38:13;;;;;;;51.30;34.30;;;;;;;11.82;100.00;100100.09;5014882;28;20186;-82
2022/01/01 08:40:42;;;;;;;37.87;21.87;;;;;;;11.96;100.00;100099.34;5014774;28;20195;-86
2022/01/01 08:43:11;;;;;;;40.97;23.17;;;;;;;11.92;100.00;100090.69;5008033;28;20329;-81
2022/01/01 08:45:40;;;;;;;33.10;22.27;;;;;;;11.89;100.00;100090.88;5014732;28;20202;-82
2022/01/01 08:48:09;;;;;;;13.53;7.00;;;;;;;12.11;100.00;100102.97;5011387;28;20253;-81
2022/01/01 08:50:39;;;;;;;81.30;43.73;;;;;;;11.96;100.00;100094.03;5007982;28;20233;-82
2022/01/01 08:53:07;;;;;;;40.63;23.57;;;;;;;12.07;100.00;100098.78;5010658;28;20657;-82
2022/01/01 08:55:35;;;;;;;36.77;21.93;;;;;;;12.12;100.00;100091.41;5014354;28;20206;-81
2022/01/01 08:58:04;;;;;;;19.23;13.00;;;;;;;12.12;100.00;83023.59;5017243;28;20195;-81
2022/01/01 09:00:52;;;;;;;9.07;4.77;;;;;;;12.25;100.00;100093.28;5032515;28;20221;-81
2022/01/01 09:03:21;;;;;;;9.10;4.10;;;;;;;12.25;100.00;100093.28;5015031;28;20209;-82
2022/01/01 09:05:51;;;;;;;9.27;4.83;;;;;;;12.16;100.00;100093.81;5008221;28;20198;-81
2022/01/01 09:08:36;;;;;;;12.13;6.20;;;;;;;12.28;100.00;100090.47;5013650;28;20645;-81
2022/01/01 09:11:06;;;;;;;9.10;5.73;;;;;;;12.41;100.00;100095.94;5014139;28;20190;-81
2022/01/01 09:13:35;;;;;;;8.43;6.17;;;;;;;12.35;100.00;100090.09;5009965;28;20215;-82
2022/01/01 09:16:04;;;;;;;9.63;6.43;;;;;;;12.32;100.00;100084.03;4953273;29;20192;-82
2022/01/01 09:18:33;;;;;;;13.03;6.00;;;;;;;12.40;100.00;100091.56;4948743;29;20352;-82
2022/01/01 09:21:03;;;;;;;10.20;6.07;;;;;;;12.31;100.00;100094.75;4951036;29;20256;-81
2022/01/01 09:23:31;;;;;;;11.50;6.43;;;;;;;-144.59;100.00;100094.75;4953742;29;20204;-82
2022/01/01 09:26:00;;;;;;;9.73;6.90;;;;;;;12.22;100.00;100095.25;4948873;29;20200;-81
2022/01/01 09:28:29;;;;;;;15.20;8.07;;;;;;;12.17;100.00;100098.19;4944384;29;20204;-81
2022/01/01 09:30:58;;;;;;;14.00;7.77;;;;;;;12.28;100.00;100097.59;4952008;28;20196;-81
2022/01/01 09:33:29;;;;;;;12.63;7.50;;;;;;;188.97;100.00;130162.66;4960769;28;20194;-82
2022/01/01 09:35:59;;;;;;;10.83;6.53;;;;;;;12.28;100.00;100104.19;5010775;28;20191;-81
2022/01/01 09:38:29;;;;;;;9.70;5.50;;;;;;;12.27;100.00;100103.84;5010565;28;20201;-81
2022/01/01 09:40:58;;;;;;;10.50;6.17;;;;;;;12.40;100.00;100111.97;5010815;28;20200;-81
2022/01/01 09:43:28;;;;;;;13.07;6.70;;;;;;;12.44;100.00;100110.84;5005931;28;20249;-81
2022/01/01 09:45:59;;;;;;;9.93;5.70;;;;;;;12.45;100.00;100113.44;5008051;28;20253;-81
2022/01/01 09:48:29;;;;;;;11.53;6.40;;;;;;;12.45;100.00;100115.22;5003081;28;20198;-81
2022/01/01 09:50:59;;;;;;;13.17;8.43;;;;;;;12.26;100.00;100115.41;5010683;28;20228;-82
2022/01/01 09:53:30;;;;;;;9.03;6.10;;;;;;;12.28;100.00;100118.84;5013484;28;20195;-81
2022/01/01 09:56:01;;;;;;;10.37;6.97;;;;;;;12.31;100.00;100108.88;5003814;28;20654;-81
2022/01/01 09:58:32;;;;;;;10.63;6.13;;;;;;;12.31;100.00;114142.13;5007259;28;20210;-81
2022/01/01 10:01:02;;;;;;;10.33;6.53;;;;;;;12.42;100.00;100110.94;5014052;28;20202;-81
2022/01/01 10:03:35;;;;;;;10.50;6.57;;;;;;;12.36;100.00;100108.66;5017159;28;20214;-81
2022/01/01 10:06:06;;;;;;;11.80;6.13;;;;;;;12.48;100.00;100107.09;5015078;28;20191;-81
2022/01/01 10:08:37;;;;;;;7.80;5.90;;;;;;;12.43;100.00;100110.00;5009007;28;20218;-82
2022/01/01 10:11:06;;;;;;;8.27;5.90;;;;;;;12.50;100.00;100114.03;5017377;28;20210;-81
2022/01/01 10:13:37;;;;;;;10.50;6.40;;;;;;;12.41;100.00;100113.69;5012780;28;20194;-81
2022/01/01 10:16:07;;;;;;;13.50;6.90;;;;;;;12.23;100.00;100111.09;5016878;28;20187;-81
2022/01/01 10:18:38;;;;;;;9.63;6.37;;;;;;;12.36;100.00;100111.31;5011435;28;20198;-81
2022/01/01 10:21:09;;;;;;;12.97;6.50;;;;;;;12.49;100.00;100116.78;5010357;28;20198;-82
2022/01/01 10:23:42;;;;;;;9.77;5.97;;;;;;;12.51;100.00;100120.19;5009741;28;20222;-81
2022/01/01 10:29:05;;;;;;;11.13;7.03;;;;;;;12.61;100.00;100118.72;5015369;28;20194;-82
2022/01/01 10:31:33;;;;;;;12.07;6.90;;;;;;;12.65;100.00;100117.63;5009907;28;20201;-82
2022/01/01 10:34:02;;;;;;;13.00;7.60;;;;;;;12.79;100.00;100123.00;5012336;28;20229;-82
2022/01/01 10:36:31;;;;;;;12.43;7.73;;;;;;;12.79;100.00;100116.81;5014895;28;20257;-82
2022/01/01 10:39:15;;;;;;;15.57;8.40;;;;;;;12.61;100.00;100118.72;5013198;28;20190;-81
2022/01/01 10:41:49;;;;;;;17.10;9.20;;;;;;;12.50;100.00;100115.81;5016638;28;20201;-82
2022/01/01 10:44:21;;;;;;;13.07;8.77;;;;;;;12.77;100.00;100113.41;5011020;28;20226;-81
2022/01/01 10:46:51;;;;;;;16.03;10.73;;;;;;;12.77;100.00;100113.41;5011650;28;20654;-82
2022/01/01 10:49:32;;;;;;;15.23;9.10;;;;;;;12.82;100.00;100116.63;5016396;28;20202;-82
2022/01/01 10:52:15;;;;;;;18.50;10.63;;;;;;;12.76;100.00;100114.34;5013593;28;20191;-82
2022/01/01 10:54:57;;;;;;;11.17;6.70;;;;;;;12.60;100.00;100107.25;5007911;28;20198;-82
2022/01/01 10:57:29;;;;;;;10.60;5.93;;;;;;;12.48;100.00;100112.41;5016367;28;20206;-82
2022/01/01 11:00:11;;;;;;;6.87;5.20;;;;;;;12.67;100.00;100107.75;5010042;28;20194;-81
2022/01/01 11:02:42;;;;;;;7.73;4.90;;;;;;;12.43;100.00;100112.66;5015969;28;20218;-82
2022/01/01 11:05:11;;;;;;;7.17;4.30;;;;;;;12.48;100.00;100101.78;5012655;28;20203;-82
2022/01/01 11:07:50;;;;;;;10.77;5.40;;;;;;;12.53;100.00;100097.91;5006520;28;20260;-82
2022/01/01 11:10:21;;;;;;;9.73;4.83;;;;;;;12.46;100.00;100103.66;5013866;28;20206;-82
2022/01/01 11:12:50;;;;;;;9.07;4.97;;;;;;;12.52;100.00;100100.66;5010782;28;20198;-82
2022/01/01 11:15:20;;;;;;;5.23;3.30;;;;;;;12.50;100.00;100094.56;5012045;28;20209;-81
2022/01/01 11:17:50;;;;;;;5.80;4.00;;;;;;;12.45;100.00;100091.31;5013183;28;20202;-82
2022/01/01 11:20:19;;;;;;;5.03;2.67;;;;;;;12.63;100.00;100087.59;5012826;28;20233;-82
2022/01/01 11:22:48;;;;;;;7.83;3.03;;;;;;;12.63;100.00;100087.59;5015888;28;20222;-82
2022/01/01 11:25:17;;;;;;;6.60;3.00;;;;;;;12.71;100.00;100084.50;5011763;28;20198;-82
2022/01/01 11:27:47;;;;;;;6.03;3.23;;;;;;;12.69;100.00;100073.97;5017058;28;20205;-82
2022/01/01 11:30:17;;;;;;;8.47;5.27;;;;;;;12.80;100.00;100073.34;5003905;28;20195;-82
2022/01/01 11:32:50;;;;;;;9.63;7.10;;;;;;;12.82;100.00;100071.44;5015573;28;20205;-82